Time;durP1;ratioP1;P1;durP2;ratioP2;P2;SDS_P1;SDS_P2;PMS_P1;PMS_P2;Temp;Humidity;BMP_temperature;BMP_pressure;BME280_temperature;BME280_humidity;BME280_pressure;Samples;Min_cycle;Max_cycle;Signal;HPM_P1;HPM_P2
2021/07/20 00:00:39;;;;;;;25.73;23.23;;;14.50;99.90;;;;;;5069319;28;20459;-70
2021/07/20 00:03:10;;;;;;;25.07;22.63;;;14.40;99.90;;;;;;5057573;28;20763;-72
2021/07/20 00:05:39;;;;;;;25.07;22.77;;;14.40;99.90;;;;;;5059551;28;20463;-72
2021/07/20 00:08:12;;;;;;;25.60;23.20;;;14.30;99.90;;;;;;5062870;28;20834;-69
2021/07/20 00:10:42;;;;;;;26.90;24.07;;;14.20;99.90;;;;;;5066130;28;20460;-71
2021/07/20 00:13:09;;;;;;;27.53;24.50;;;14.10;99.90;;;;;;5060806;28;20817;-70
2021/07/20 00:15:36;;;;;;;25.10;23.00;;;14.00;99.90;;;;;;5068193;28;20463;-71
2021/07/20 00:18:07;;;;;;;26.60;24.10;;;14.00;99.90;;;;;;5068110;28;20476;-73
2021/07/20 00:20:34;;;;;;;25.33;22.80;;;14.00;99.90;;;;;;5065304;28;20460;-72
2021/07/20 00:23:01;;;;;;;24.90;22.60;;;14.00;99.90;;;;;;5057641;28;20455;-71
2021/07/20 00:25:30;;;;;;;26.20;23.80;;;14.10;99.90;;;;;;5061615;28;20466;-71
2021/07/20 00:27:57;;;;;;;26.17;23.67;;;14.10;99.90;;;;;;5065826;28;20454;-71
2021/07/20 00:30:24;;;;;;;25.27;22.70;;;14.00;99.90;;;;;;5059686;28;20520;-72
2021/07/20 00:32:53;;;;;;;25.40;23.10;;;13.90;99.90;;;;;;5058304;28;20459;-73
2021/07/20 00:35:22;;;;;;;26.73;24.20;;;13.90;99.90;;;;;;5062000;28;20486;-71
2021/07/20 00:37:50;;;;;;;25.97;23.17;;;13.90;99.90;;;;;;5055329;28;20455;-71
2021/07/20 00:40:19;;;;;;;25.67;23.10;;;13.80;99.90;;;;;;5061787;28;20471;-72
2021/07/20 00:42:47;;;;;;;26.87;24.20;;;13.70;99.90;;;;;;5063510;28;20487;-72
2021/07/20 00:45:18;;;;;;;26.93;24.33;;;13.70;99.90;;;;;;5064137;28;20459;-71
2021/07/20 00:47:48;;;;;;;26.90;24.20;;;13.60;99.90;;;;;;5060101;28;20483;-71
2021/07/20 00:50:18;;;;;;;31.50;25.67;;;13.50;99.90;;;;;;5060417;28;20490;-71
2021/07/20 00:52:45;;;;;;;27.57;25.10;;;13.40;99.90;;;;;;5061489;28;20460;-72
2021/07/20 00:55:13;;;;;;;30.60;25.03;;;13.30;99.90;;;;;;5062892;28;20494;-71
2021/07/20 00:57:42;;;;;;;28.03;25.17;;;13.20;99.90;;;;;;5063323;28;20467;-71
2021/07/20 01:00:13;;;;;;;27.10;24.17;;;13.20;99.90;;;;;;5058882;28;20467;-71
2021/07/20 01:02:40;;;;;;;26.30;24.00;;;13.10;99.90;;;;;;5065037;28;20455;-71
2021/07/20 01:05:08;;;;;;;26.47;23.73;;;13.00;99.90;;;;;;5058419;28;20490;-70
2021/07/20 01:07:37;;;;;;;30.60;24.67;;;12.90;99.90;;;;;;5065027;28;20521;-72
2021/07/20 01:10:07;;;;;;;27.30;23.57;;;12.80;99.90;;;;;;5060242;28;20975;-71
2021/07/20 01:12:38;;;;;;;28.03;24.63;;;12.80;99.90;;;;;;5061829;28;20945;-73
2021/07/20 01:15:11;;;;;;;31.57;23.50;;;12.80;99.90;;;;;;5062030;28;20557;-71
2021/07/20 01:17:40;;;;;;;25.73;23.20;;;12.80;99.90;;;;;;5059814;28;20460;-71
2021/07/20 01:20:10;;;;;;;29.10;23.77;;;12.80;99.90;;;;;;5061915;28;20467;-71
2021/07/20 01:22:38;;;;;;;28.67;22.93;;;12.70;99.90;;;;;;5058292;28;20467;-72
2021/07/20 01:25:11;;;;;;;26.80;24.07;;;12.70;99.90;;;;;;5064750;28;20471;-73
2021/07/20 01:27:40;;;;;;;28.07;24.20;;;12.70;99.90;;;;;;5054087;28;20474;-71
2021/07/20 01:30:09;;;;;;;26.07;23.37;;;12.60;99.90;;;;;;5059615;28;20550;-71
2021/07/20 01:32:37;;;;;;;25.63;22.90;;;12.60;99.90;;;;;;5059669;28;20456;-73
2021/07/20 01:35:07;;;;;;;27.27;24.43;;;12.60;99.90;;;;;;5062516;28;20995;-72
2021/07/20 01:37:37;;;;;;;26.30;23.27;;;12.60;99.90;;;;;;5057561;28;20470;-72
2021/07/20 01:40:08;;;;;;;26.80;23.90;;;12.50;99.90;;;;;;5059635;28;20518;-71
2021/07/20 01:42:37;;;;;;;29.87;25.33;;;12.50;99.90;;;;;;5060545;28;20478;-71
2021/07/20 01:45:04;;;;;;;27.70;24.93;;;12.50;99.90;;;;;;5056282;28;20771;-73
2021/07/20 01:47:34;;;;;;;27.50;24.70;;;12.40;99.90;;;;;;5062315;28;20834;-72
2021/07/20 01:50:02;;;;;;;33.10;24.43;;;12.40;99.90;;;;;;5058293;28;20459;-71
2021/07/20 01:52:32;;;;;;;26.67;24.00;;;12.30;99.90;;;;;;5060883;28;20958;-70
2021/07/20 01:54:59;;;;;;;28.03;25.13;;;12.20;99.90;;;;;;5059604;28;20487;-71
2021/07/20 01:57:28;;;;;;;36.40;25.70;;;12.30;99.90;;;;;;5064111;28;20512;-70
2021/07/20 01:59:57;;;;;;;28.23;25.43;;;12.20;99.90;;;;;;5064179;28;20467;-71
2021/07/20 02:02:31;;;;;;;26.60;23.93;;;12.10;99.90;;;;;;5066500;28;20465;-72
2021/07/20 02:10:34;;;;;;;27.20;24.30;;;12.10;99.90;;;;;;5062053;28;20462;-71
2021/07/20 02:13:05;;;;;;;26.70;23.97;;;12.00;99.90;;;;;;5058872;28;20526;-71
2021/07/20 02:15:36;;;;;;;30.97;23.60;;;11.90;99.90;;;;;;5053469;28;20838;-72
2021/07/20 02:18:03;;;;;;;29.00;24.83;;;11.90;99.90;;;;;;5062022;28;20470;-71
2021/07/20 02:20:32;;;;;;;26.50;24.00;;;11.90;99.90;;;;;;5062706;28;20463;-73
2021/07/20 02:23:00;;;;;;;26.53;23.70;;;11.90;99.90;;;;;;5059733;28;20867;-71
2021/07/20 02:25:29;;;;;;;27.33;24.30;;;11.90;99.90;;;;;;5058016;28;20471;-71
2021/07/20 02:27:57;;;;;;;29.73;23.77;;;11.90;99.90;;;;;;5058267;28;20467;-71
2021/07/20 02:30:28;;;;;;;30.87;24.63;;;11.90;99.90;;;;;;5059797;28;20460;-71
2021/07/20 02:32:56;;;;;;;27.43;24.50;;;11.80;99.90;;;;;;5061811;28;20462;-71
2021/07/20 02:35:24;;;;;;;34.63;25.27;;;11.80;99.90;;;;;;5061016;28;21055;-70
2021/07/20 02:37:53;;;;;;;26.90;24.10;;;11.70;99.90;;;;;;5058208;28;20471;-72
2021/07/20 02:40:23;;;;;;;27.37;24.53;;;11.70;99.90;;;;;;5055773;28;20462;-71
2021/07/20 02:42:52;;;;;;;30.53;25.73;;;11.70;99.90;;;;;;5051813;28;21178;-72
2021/07/20 02:45:21;;;;;;;29.00;24.90;;;11.70;99.90;;;;;;5063244;28;20455;-70
2021/07/20 02:47:51;;;;;;;32.73;26.60;;;11.70;99.90;;;;;;5056195;28;20463;-71
2021/07/20 02:50:18;;;;;;;28.60;25.30;;;11.60;99.90;;;;;;5060151;28;20495;-72
2021/07/20 02:52:47;;;;;;;27.03;24.17;;;11.60;99.90;;;;;;5055830;28;20467;-71
2021/07/20 02:55:18;;;;;;;28.40;24.60;;;11.50;99.90;;;;;;5059017;28;20495;-70
2021/07/20 02:57:46;;;;;;;27.63;23.87;;;11.50;99.90;;;;;;5056898;28;20478;-71
2021/07/20 03:00:14;;;;;;;27.23;24.23;;;11.50;99.90;;;;;;5062118;28;20478;-71
2021/07/20 03:02:46;;;;;;;31.50;24.93;;;11.40;99.90;;;;;;5063032;28;20459;-70
2021/07/20 03:05:15;;;;;;;28.00;24.80;;;11.40;99.90;;;;;;5059652;28;20473;-71
2021/07/20 03:07:47;;;;;;;31.03;25.23;;;11.40;99.90;;;;;;5060285;28;20470;-71
2021/07/20 03:10:15;;;;;;;29.80;25.47;;;11.30;99.90;;;;;;5062589;28;20461;-71
2021/07/20 03:12:45;;;;;;;31.70;25.00;;;11.30;99.90;;;;;;5065757;28;20997;-72
2021/07/20 03:15:15;;;;;;;28.93;24.57;;;11.20;99.90;;;;;;5065840;28;20493;-72
2021/07/20 03:17:42;;;;;;;33.60;24.80;;;11.20;99.90;;;;;;5066452;28;20970;-71
2021/07/20 03:20:12;;;;;;;32.60;25.60;;;11.20;99.90;;;;;;5067110;28;20478;-71
2021/07/20 03:22:42;;;;;;;27.33;23.43;;;11.20;99.90;;;;;;5063176;28;20471;-70
2021/07/20 03:25:12;;;;;;;29.73;23.90;;;11.20;99.90;;;;;;5058772;28;20577;-71
2021/07/20 03:27:43;;;;;;;27.70;24.70;;;11.20;99.90;;;;;;5065389;28;20455;-71
2021/07/20 03:30:12;;;;;;;29.43;24.43;;;11.10;99.90;;;;;;5061671;28;20473;-70
2021/07/20 03:32:44;;;;;;;35.50;25.70;;;11.10;99.90;;;;;;5063701;28;20450;-70
2021/07/20 03:35:13;;;;;;;34.00;24.80;;;11.10;99.90;;;;;;5064469;28;20502;-72
2021/07/20 03:37:43;;;;;;;38.40;25.00;;;11.00;99.90;;;;;;5059977;28;20463;-70
2021/07/20 03:40:12;;;;;;;33.33;25.67;;;11.10;99.90;;;;;;5064042;28;20504;-71
2021/07/20 03:42:40;;;;;;;33.57;24.30;;;11.10;99.90;;;;;;5057926;28;20489;-71
2021/07/20 03:45:10;;;;;;;27.73;24.90;;;11.10;99.90;;;;;;5062991;28;20455;-71
2021/07/20 03:47:37;;;;;;;29.60;23.80;;;11.10;99.90;;;;;;5060916;28;20492;-70
2021/07/20 03:50:08;;;;;;;36.70;25.33;;;11.00;99.90;;;;;;5064531;28;20459;-71
2021/07/20 03:52:38;;;;;;;33.50;25.57;;;11.10;99.90;;;;;;5061395;28;20491;-71
2021/07/20 03:55:08;;;;;;;28.33;24.47;;;11.00;99.90;;;;;;5063777;28;20494;-71
2021/07/20 03:57:37;;;;;;;31.03;25.70;;;11.00;99.90;;;;;;5065464;28;20463;-70
2021/07/20 04:00:09;;;;;;;34.67;26.97;;;10.90;99.90;;;;;;5066909;28;20462;-71
2021/07/20 04:02:48;;;;;;;30.20;25.63;;;10.90;99.90;;;;;;5062061;28;20469;-70
2021/07/20 04:05:17;;;;;;;36.47;26.80;;;10.90;99.90;;;;;;5061252;28;20469;-71
2021/07/20 04:07:48;;;;;;;33.27;27.00;;;10.90;99.90;;;;;;5052240;28;20458;-71
2021/07/20 04:10:19;;;;;;;33.33;26.00;;;10.90;99.90;;;;;;5063926;28;20454;-71
2021/07/20 04:12:47;;;;;;;36.17;27.87;;;10.90;99.90;;;;;;5060958;28;20460;-71
2021/07/20 04:15:16;;;;;;;29.93;26.07;;;10.90;99.90;;;;;;5063801;28;20486;-71
2021/07/20 04:17:46;;;;;;;30.10;25.83;;;11.00;99.90;;;;;;5065969;28;20961;-70
2021/07/20 04:20:14;;;;;;;39.83;27.73;;;11.00;99.90;;;;;;5063197;28;20818;-71
2021/07/20 04:22:43;;;;;;;34.00;27.33;;;11.00;99.90;;;;;;5055915;28;20460;-70
2021/07/20 04:25:12;;;;;;;34.57;27.27;;;11.00;99.90;;;;;;5062192;28;20499;-71
2021/07/20 04:27:44;;;;;;;36.63;27.87;;;11.00;99.90;;;;;;5067184;28;20468;-70
2021/07/20 04:30:12;;;;;;;34.23;26.70;;;11.10;99.90;;;;;;5057876;28;20475;-72
2021/07/20 04:32:45;;;;;;;37.90;27.63;;;11.10;99.90;;;;;;5060570;28;20459;-72
2021/07/20 04:35:14;;;;;;;36.97;28.63;;;11.10;99.90;;;;;;5053678;28;20507;-71
2021/07/20 04:37:42;;;;;;;36.00;27.20;;;11.20;99.90;;;;;;5063688;28;20468;-70
2021/07/20 04:40:11;;;;;;;34.83;27.40;;;11.20;99.90;;;;;;5059018;28;20490;-71
2021/07/20 04:42:41;;;;;;;35.60;26.30;;;11.20;99.90;;;;;;5062044;28;20487;-71
2021/07/20 04:45:10;;;;;;;34.50;27.37;;;11.20;99.90;;;;;;5066894;28;20847;-71
2021/07/20 04:47:38;;;;;;;41.87;28.17;;;11.30;99.90;;;;;;5059342;28;20544;-70
2021/07/20 04:50:08;;;;;;;32.90;27.97;;;11.30;99.90;;;;;;5062407;28;20463;-71
2021/07/20 04:52:37;;;;;;;29.90;26.70;;;11.40;99.90;;;;;;5063689;28;20456;-70
2021/07/20 04:55:06;;;;;;;43.93;28.37;;;11.40;99.90;;;;;;5062680;28;20482;-71
2021/07/20 04:57:33;;;;;;;39.43;28.50;;;11.50;99.90;;;;;;5067016;28;20470;-71
2021/07/20 05:00:01;;;;;;;37.33;28.63;;;11.60;99.90;;;;;;5060996;28;20462;-70
2021/07/20 05:02:30;;;;;;;30.83;27.50;;;11.60;99.90;;;;;;5057278;28;20462;-71
2021/07/20 05:04:58;;;;;;;40.37;28.20;;;11.60;99.90;;;;;;5059100;28;20459;-71
2021/07/20 05:07:27;;;;;;;42.13;28.20;;;11.70;99.90;;;;;;5064719;28;20459;-71
2021/07/20 05:09:55;;;;;;;41.00;30.97;;;11.80;99.90;;;;;;5063671;28;20459;-71
2021/07/20 05:12:22;;;;;;;38.53;30.93;;;11.90;99.90;;;;;;5054558;28;20545;-71
2021/07/20 05:14:49;;;;;;;39.77;29.03;;;12.00;99.90;;;;;;5059381;28;20832;-71
2021/07/20 05:17:18;;;;;;;39.27;29.30;;;12.20;99.90;;;;;;5064901;28;20938;-71
2021/07/20 05:19:45;;;;;;;43.60;29.80;;;12.30;99.90;;;;;;5059957;28;20463;-71
2021/07/20 05:22:14;;;;;;;43.67;28.93;;;12.50;99.90;;;;;;5058995;28;20467;-71
2021/07/20 05:24:42;;;;;;;37.40;29.63;;;12.50;99.90;;;;;;5063407;28;20793;-71
2021/07/20 05:27:11;;;;;;;40.33;29.70;;;12.70;99.90;;;;;;5060812;28;20459;-70
2021/07/20 05:29:40;;;;;;;41.67;32.53;;;12.70;99.90;;;;;;5063380;28;20471;-70
2021/07/20 05:32:08;;;;;;;37.53;30.20;;;12.80;99.90;;;;;;5065669;28;20458;-70
2021/07/20 05:34:37;;;;;;;50.43;30.43;;;12.90;99.90;;;;;;5057977;28;20489;-71
2021/07/20 05:37:05;;;;;;;57.57;31.80;;;12.90;99.90;;;;;;5056684;28;20483;-70
2021/07/20 05:39:33;;;;;;;46.70;30.47;;;13.10;99.90;;;;;;5062728;28;20491;-71
2021/07/20 05:42:00;;;;;;;57.53;33.17;;;13.20;99.90;;;;;;5064620;28;20481;-71
2021/07/20 05:44:28;;;;;;;41.60;30.53;;;13.20;99.90;;;;;;5062492;28;20550;-71
2021/07/20 05:46:54;;;;;;;45.10;33.50;;;13.30;99.90;;;;;;5065187;28;20463;-70
2021/07/20 05:49:21;;;;;;;45.33;31.13;;;13.40;99.90;;;;;;5064717;28;20466;-71
2021/07/20 05:51:50;;;;;;;41.93;30.80;;;13.50;99.90;;;;;;5065676;28;20463;-71
2021/07/20 05:54:17;;;;;;;46.20;30.30;;;13.60;99.90;;;;;;5063662;28;20478;-71
2021/07/20 05:56:47;;;;;;;45.70;31.97;;;13.70;99.90;;;;;;5064225;28;21000;-71
2021/07/20 05:59:17;;;;;;;50.87;31.97;;;13.70;99.90;;;;;;5065263;28;20979;-70
2021/07/20 06:01:44;;;;;;;45.47;32.80;;;13.80;99.90;;;;;;5062251;28;20981;-71
2021/07/20 06:04:11;;;;;;;48.70;32.40;;;13.90;99.90;;;;;;5063715;28;20485;-71
2021/07/20 06:06:39;;;;;;;50.97;33.70;;;14.00;99.90;;;;;;5063247;28;20456;-69
2021/07/20 06:09:09;;;;;;;45.80;32.60;;;14.20;99.90;;;;;;5065736;28;20459;-70
2021/07/20 06:11:37;;;;;;;47.83;34.20;;;14.30;99.90;;;;;;5066882;28;20466;-70
2021/07/20 06:14:04;;;;;;;48.60;33.60;;;14.40;99.90;;;;;;5063320;28;20459;-69
2021/07/20 06:16:33;;;;;;;60.90;34.43;;;14.50;99.90;;;;;;5063588;28;20566;-71
2021/07/20 06:19:01;;;;;;;46.67;35.17;;;14.70;99.90;;;;;;5063478;28;20543;-70
2021/07/20 06:21:28;;;;;;;52.70;34.67;;;14.80;99.90;;;;;;5062482;28;20494;-70
2021/07/20 06:23:57;;;;;;;44.37;33.53;;;14.90;99.90;;;;;;5061348;28;20495;-70
2021/07/20 06:26:28;;;;;;;47.23;33.27;;;15.00;99.90;;;;;;5062786;28;20831;-71
2021/07/20 06:28:59;;;;;;;55.43;34.20;;;15.10;99.90;;;;;;5063986;28;20479;-71
2021/07/20 06:31:26;;;;;;;49.20;33.97;;;15.20;99.90;;;;;;5062243;28;20462;-70
2021/07/20 06:33:56;;;;;;;47.53;33.20;;;15.40;99.90;;;;;;5065967;28;20540;-71
2021/07/20 06:36:24;;;;;;;47.30;32.97;;;15.50;99.90;;;;;;5064311;28;20497;-71
2021/07/20 06:38:54;;;;;;;38.97;31.67;;;15.60;99.90;;;;;;5062819;28;20497;-71
2021/07/20 06:41:21;;;;;;;40.50;30.97;;;15.70;99.90;;;;;;5057804;28;20491;-71
2021/07/20 06:43:49;;;;;;;46.23;33.23;;;15.90;99.90;;;;;;5060266;28;20459;-71
2021/07/20 06:46:17;;;;;;;37.53;32.20;;;15.90;99.90;;;;;;5066894;28;20462;-71
2021/07/20 06:48:47;;;;;;;51.70;33.17;;;16.00;99.90;;;;;;5062089;28;20460;-71
2021/07/20 06:51:14;;;;;;;40.20;31.70;;;16.20;99.90;;;;;;5065199;28;20467;-71
2021/07/20 06:53:42;;;;;;;40.23;32.30;;;16.20;99.90;;;;;;5065475;28;20467;-71
2021/07/20 06:56:17;;;;;;;39.57;30.87;;;16.40;99.90;;;;;;5066905;28;21008;-70
2021/07/20 06:58:45;;;;;;;38.53;33.00;;;16.50;99.90;;;;;;5062383;28;20456;-70
2021/07/20 07:01:16;;;;;;;42.37;31.80;;;16.60;99.90;;;;;;5058619;28;20466;-71
2021/07/20 07:03:53;;;;;;;37.73;31.23;;;16.60;99.90;;;;;;5063990;28;20469;-72
2021/07/20 07:06:24;;;;;;;38.67;30.47;;;16.80;99.90;;;;;;5067528;28;20934;-73
2021/07/20 07:08:52;;;;;;;41.00;31.70;;;16.90;99.90;;;;;;5070638;28;20799;-72
2021/07/20 07:11:19;;;;;;;36.17;30.07;;;17.10;99.90;;;;;;5066150;28;20467;-72
2021/07/20 07:13:47;;;;;;;39.40;30.80;;;17.10;99.90;;;;;;5057699;28;20463;-71
2021/07/20 07:16:17;;;;;;;40.37;31.00;;;17.30;99.90;;;;;;5049456;28;21198;-71
2021/07/20 07:18:45;;;;;;;35.03;31.30;;;17.40;99.90;;;;;;5060679;28;20470;-72
2021/07/20 07:21:13;;;;;;;32.00;28.80;;;17.50;99.90;;;;;;5058642;28;20472;-72
2021/07/20 07:23:41;;;;;;;34.03;28.43;;;17.60;99.90;;;;;;5062642;28;20468;-71
2021/07/20 07:26:13;;;;;;;33.97;30.43;;;17.60;99.90;;;;;;5066385;28;20485;-72
2021/07/20 07:28:41;;;;;;;35.30;31.50;;;17.70;99.90;;;;;;5062847;28;20996;-72
2021/07/20 07:31:10;;;;;;;36.20;29.40;;;17.80;99.90;;;;;;5057546;28;20470;-72
2021/07/20 07:33:39;;;;;;;32.67;29.17;;;17.90;99.90;;;;;;5059867;28;20450;-71
2021/07/20 07:36:07;;;;;;;33.00;27.63;;;18.00;99.90;;;;;;5061205;28;20494;-72
2021/07/20 07:38:35;;;;;;;32.23;29.10;;;18.10;99.90;;;;;;5059447;28;20495;-72
2021/07/20 07:41:04;;;;;;;32.90;29.80;;;18.00;99.90;;;;;;5057651;28;20488;-72
2021/07/20 07:43:32;;;;;;;30.47;27.30;;;18.10;99.90;;;;;;5059915;28;20464;-71
2021/07/20 07:46:00;;;;;;;32.00;25.60;;;18.30;99.90;;;;;;5063337;28;20462;-73
2021/07/20 07:48:36;;;;;;;30.87;26.50;;;18.50;99.90;;;;;;5058329;28;20471;-72
2021/07/20 07:51:06;;;;;;;30.00;26.80;;;18.50;99.90;;;;;;5063928;28;21057;-73
2021/07/20 07:53:35;;;;;;;29.90;26.97;;;18.60;99.90;;;;;;5058135;28;20459;-72
2021/07/20 07:56:02;;;;;;;29.20;26.30;;;18.60;99.90;;;;;;5061579;28;20498;-71
2021/07/20 07:58:30;;;;;;;31.73;27.70;;;18.70;99.90;;;;;;5058372;28;20524;-70
2021/07/20 08:00:58;;;;;;;30.23;25.33;;;18.80;99.90;;;;;;5059666;28;20500;-72
2021/07/20 08:03:29;;;;;;;29.80;26.87;;;19.00;99.90;;;;;;5061847;28;20963;-72
2021/07/20 08:05:57;;;;;;;27.07;24.37;;;19.10;99.90;;;;;;5055268;28;20478;-73
2021/07/20 08:08:26;;;;;;;28.10;25.30;;;19.00;99.90;;;;;;5062121;28;20541;-71
2021/07/20 08:10:54;;;;;;;26.83;24.47;;;19.30;99.90;;;;;;5061005;28;20463;-72
2021/07/20 08:13:23;;;;;;;28.77;25.87;;;19.40;99.90;;;;;;5061936;28;20557;-71
2021/07/20 08:15:52;;;;;;;29.37;26.27;;;19.20;99.90;;;;;;5062088;28;20558;-71
2021/07/20 08:18:21;;;;;;;26.10;23.80;;;19.40;99.90;;;;;;5063365;28;20980;-73
2021/07/20 08:20:52;;;;;;;27.80;25.03;;;19.50;99.90;;;;;;5059212;28;20463;-73
2021/07/20 08:23:20;;;;;;;27.40;25.00;;;19.80;99.90;;;;;;5060441;28;20468;-70
2021/07/20 08:25:52;;;;;;;25.80;23.50;;;20.20;99.90;;;;;;5063017;28;20458;-71
2021/07/20 08:28:27;;;;;;;26.17;23.73;;;20.90;99.90;;;;;;5061932;28;20474;-72
2021/07/20 08:31:01;;;;;;;26.87;24.47;;;20.70;99.90;;;;;;5061493;28;20549;-73
2021/07/20 08:33:33;;;;;;;25.80;23.60;;;21.00;99.90;;;;;;5060221;28;20466;-71
2021/07/20 08:36:02;;;;;;;25.00;22.97;;;21.90;99.90;;;;;;5061258;28;20906;-72
2021/07/20 08:38:31;;;;;;;25.30;22.90;;;22.40;99.90;;;;;;5063770;28;20487;-74
2021/07/20 08:41:14;;;;;;;24.90;22.80;;;23.00;99.90;;;;;;5065416;28;20494;-71
2021/07/20 08:43:55;;;;;;;25.53;23.13;;;23.80;99.90;;;;;;5059513;28;20471;-72
2021/07/20 08:46:31;;;;;;;25.57;23.00;;;24.30;99.90;;;;;;5059235;28;20595;-73
2021/07/20 08:49:06;;;;;;;24.70;22.73;;;23.50;99.90;;;;;;5054822;28;20573;-71
2021/07/20 08:51:39;;;;;;;25.63;23.23;;;22.90;99.90;;;;;;5061670;28;20545;-71
2021/07/20 08:54:10;;;;;;;26.57;24.17;;;22.30;99.90;;;;;;5060802;28;20467;-73
2021/07/20 08:56:44;;;;;;;25.30;23.00;;;21.90;99.90;;;;;;5061366;28;21036;-71
2021/07/20 08:59:18;;;;;;;24.87;22.77;;;21.30;99.90;;;;;;5058744;28;20467;-72
2021/07/20 09:01:51;;;;;;;24.87;22.80;;;21.50;99.90;;;;;;5058530;28;20481;-72
2021/07/20 09:04:22;;;;;;;25.80;23.07;;;22.50;99.90;;;;;;5058319;28;20493;-72
2021/07/20 09:06:52;;;;;;;23.63;21.63;;;23.00;99.90;;;;;;5058391;28;20480;-72
2021/07/20 09:09:24;;;;;;;23.93;21.93;;;22.70;99.90;;;;;;5051693;28;20977;-70
2021/07/20 09:11:57;;;;;;;25.23;22.90;;;22.00;99.90;;;;;;5058941;28;20460;-71
2021/07/20 09:14:30;;;;;;;25.97;23.67;;;21.60;99.90;;;;;;5053257;28;20474;-71
2021/07/20 09:17:05;;;;;;;26.70;24.10;;;20.80;99.90;;;;;;5058651;28;20711;-70
2021/07/20 09:19:36;;;;;;;25.40;23.30;;;20.60;99.90;;;;;;5062549;28;20462;-71
2021/07/20 09:22:07;;;;;;;25.10;22.70;;;21.60;99.90;;;;;;5055885;28;20467;-72
2021/07/20 09:24:40;;;;;;;24.60;22.50;;;23.00;99.90;;;;;;5055897;28;20467;-72
2021/07/20 09:27:12;;;;;;;25.40;23.10;;;23.70;99.90;;;;;;5048756;28;20459;-73
2021/07/20 09:29:43;;;;;;;25.80;23.53;;;24.30;99.90;;;;;;5060322;28;20467;-72
2021/07/20 09:32:25;;;;;;;24.13;22.03;;;25.10;99.90;;;;;;5053458;28;20475;-73
2021/07/20 09:35:11;;;;;;;26.57;23.57;;;24.70;99.90;;;;;;5057436;28;20951;-71
2021/07/20 09:37:47;;;;;;;24.27;22.20;;;25.10;99.90;;;;;;5060882;28;20509;-71
2021/07/20 09:40:34;;;;;;;25.17;23.07;;;25.90;99.90;;;;;;5053047;28;20526;-71
2021/07/20 09:43:07;;;;;;;25.20;22.70;;;26.30;99.90;;;;;;5054593;28;20573;-71
2021/07/20 09:45:40;;;;;;;24.90;22.80;;;26.90;99.90;;;;;;5051441;28;20466;-71
2021/07/20 09:48:22;;;;;;;23.10;21.40;;;27.90;98.70;;;;;;5054467;28;20467;-72
2021/07/20 09:51:02;;;;;;;23.00;21.23;;;27.40;98.10;;;;;;5057415;28;20468;-72
2021/07/20 09:53:51;;;;;;;24.17;22.37;;;27.00;98.80;;;;;;5059202;28;20865;-72
2021/07/20 09:56:35;;;;;;;23.77;21.97;;;26.90;98.40;;;;;;5063988;28;20617;-72
2021/07/20 09:59:14;;;;;;;24.30;22.17;;;25.90;99.90;;;;;;5060998;28;20502;-71
2021/07/20 10:01:54;;;;;;;23.80;22.00;;;26.50;99.90;;;;;;5058711;28;20462;-71
2021/07/20 10:04:28;;;;;;;23.53;21.63;;;26.70;99.10;;;;;;5054170;28;20521;-72
2021/07/20 10:07:04;;;;;;;24.50;22.57;;;26.80;99.90;;;;;;5055005;28;20466;-72
2021/07/20 10:09:38;;;;;;;23.60;21.50;;;26.50;98.60;;;;;;5056283;28;20462;-72
2021/07/20 10:12:15;;;;;;;24.17;22.07;;;25.30;99.90;;;;;;5059462;28;20524;-72
2021/07/20 10:14:57;;;;;;;23.67;21.73;;;25.40;99.90;;;;;;5057456;28;20458;-71
2021/07/20 10:17:33;;;;;;;24.43;22.43;;;26.40;99.90;;;;;;5057570;28;20495;-71
2021/07/20 10:20:10;;;;;;;25.13;22.67;;;27.50;97.50;;;;;;5064295;28;20474;-72
2021/07/20 10:22:42;;;;;;;22.93;21.10;;;27.90;97.80;;;;;;5051548;28;20462;-74
2021/07/20 10:25:17;;;;;;;24.23;22.10;;;28.20;95.70;;;;;;5058270;28;21188;-71
2021/07/20 10:27:51;;;;;;;26.77;23.20;;;28.10;94.30;;;;;;5055887;28;20494;-74
2021/07/20 10:30:21;;;;;;;22.87;20.83;;;28.70;94.60;;;;;;5055852;28;20459;-72
2021/07/20 10:32:58;;;;;;;23.83;22.00;;;29.10;93.10;;;;;;5059563;28;20463;-72
2021/07/20 10:35:30;;;;;;;22.53;20.70;;;29.70;93.90;;;;;;5053350;28;20462;-71
2021/07/20 10:37:58;;;;;;;23.30;21.30;;;30.10;91.50;;;;;;5050431;28;20498;-74
2021/07/20 10:40:27;;;;;;;24.70;22.70;;;29.20;91.50;;;;;;5050795;28;20806;-71
2021/07/20 10:43:01;;;;;;;23.53;21.73;;;27.40;92.80;;;;;;5048090;28;20478;-72
2021/07/20 10:45:33;;;;;;;23.83;21.60;;;27.10;94.00;;;;;;5059675;28;20467;-72
2021/07/20 10:48:04;;;;;;;23.67;21.70;;;27.50;94.30;;;;;;5058316;28;20487;-71
2021/07/20 10:50:35;;;;;;;23.27;21.43;;;27.50;92.60;;;;;;5058511;28;20502;-73
2021/07/20 10:53:10;;;;;;;23.17;21.37;;;28.00;93.40;;;;;;5060498;28;20899;-73
2021/07/20 10:55:46;;;;;;;24.40;22.00;;;27.40;92.60;;;;;;5056712;28;20976;-70
2021/07/20 10:58:21;;;;;;;23.97;21.97;;;26.70;93.10;;;;;;5057329;28;20493;-74
2021/07/20 11:00:56;;;;;;;23.33;20.93;;;27.40;93.70;;;;;;5056735;28;20462;-71
2021/07/20 11:03:31;;;;;;;25.00;22.80;;;28.50;93.70;;;;;;5059058;28;20469;-71
2021/07/20 11:06:00;;;;;;;23.50;21.43;;;29.30;91.20;;;;;;5054799;28;20538;-71
2021/07/20 11:08:29;;;;;;;23.33;21.13;;;29.50;91.10;;;;;;5052937;28;20456;-73
2021/07/20 11:10:58;;;;;;;23.70;21.90;;;29.70;89.70;;;;;;5053210;28;20467;-73
2021/07/20 11:13:29;;;;;;;23.50;21.67;;;30.50;87.30;;;;;;5057110;28;20874;-73
2021/07/20 11:16:01;;;;;;;23.97;21.87;;;30.70;86.40;;;;;;5054201;28;20466;-74
2021/07/20 11:18:31;;;;;;;23.70;21.70;;;29.80;86.30;;;;;;5051932;28;20495;-74
2021/07/20 11:21:01;;;;;;;23.17;21.33;;;29.50;89.10;;;;;;5056351;28;20839;-71
2021/07/20 11:23:32;;;;;;;23.53;21.63;;;30.20;87.40;;;;;;5056703;28;20467;-71
2021/07/20 11:26:00;;;;;;;24.37;22.23;;;30.40;85.80;;;;;;5054054;28;20467;-74
2021/07/20 11:28:29;;;;;;;23.50;21.70;;;30.00;89.10;;;;;;5051465;28;20460;-72
2021/07/20 11:31:01;;;;;;;25.73;23.23;;;29.40;88.10;;;;;;5062865;28;20463;-71
2021/07/20 11:33:33;;;;;;;24.70;22.70;;;29.90;86.20;;;;;;5061202;28;20467;-70
2021/07/20 11:36:03;;;;;;;24.20;22.20;;;30.10;85.00;;;;;;5059323;28;20458;-71
2021/07/20 11:38:33;;;;;;;23.93;22.10;;;31.00;83.30;;;;;;5063398;28;20502;-71
2021/07/20 11:41:12;;;;;;;23.80;21.97;;;31.20;82.50;;;;;;5060652;28;20459;-71
2021/07/20 11:43:49;;;;;;;25.77;23.70;;;31.60;82.70;;;;;;5058561;28;20501;-74
2021/07/20 11:46:21;;;;;;;24.10;22.00;;;30.90;83.00;;;;;;5056697;28;20516;-71
2021/07/20 11:48:54;;;;;;;23.40;21.60;;;31.00;79.80;;;;;;5055737;28;20466;-71
2021/07/20 11:51:25;;;;;;;24.40;22.50;;;31.20;81.50;;;;;;5060253;28;20467;-71
2021/07/20 11:54:00;;;;;;;26.20;24.27;;;31.70;78.80;;;;;;5062503;28;21022;-72
2021/07/20 11:56:30;;;;;;;23.97;22.20;;;31.60;78.10;;;;;;5055638;28;20506;-71
2021/07/20 11:59:45;;;;;;;24.03;22.20;;;32.60;76.20;;;;;;5060480;28;20487;-71
2021/07/20 12:02:48;;;;;;;23.87;21.87;;;32.00;75.30;;;;;;5053018;28;20456;-75
2021/07/20 12:05:31;;;;;;;23.53;21.63;;;31.40;74.40;;;;;;5061646;28;20486;-71
2021/07/20 12:08:04;;;;;;;23.20;21.50;;;31.50;74.20;;;;;;5056973;28;20550;-71
2021/07/20 12:10:39;;;;;;;23.20;21.40;;;31.90;73.50;;;;;;5053523;28;20464;-75
2021/07/20 12:13:09;;;;;;;23.57;21.60;;;32.10;72.60;;;;;;5056684;28;20981;-74
2021/07/20 12:15:38;;;;;;;24.03;22.33;;;32.60;69.60;;;;;;5054169;28;20469;-71
2021/07/20 12:18:07;;;;;;;25.27;23.17;;;32.70;70.10;;;;;;5055791;28;20491;-73
2021/07/20 12:20:35;;;;;;;23.00;21.30;;;33.00;68.90;;;;;;5056437;28;20984;-71
2021/07/20 12:23:04;;;;;;;24.47;22.27;;;32.80;70.70;;;;;;5056898;28;20459;-71
2021/07/20 12:25:33;;;;;;;24.77;22.70;;;33.40;68.50;;;;;;5058155;28;20937;-70
2021/07/20 12:28:02;;;;;;;23.37;21.60;;;32.70;67.50;;;;;;5059982;28;20461;-71
2021/07/20 12:30:30;;;;;;;23.57;21.43;;;31.80;67.80;;;;;;5056986;28;20467;-74
2021/07/20 12:32:58;;;;;;;24.23;22.03;;;32.50;68.90;;;;;;5058655;28;20463;-71
2021/07/20 12:35:28;;;;;;;24.00;22.10;;;33.60;66.90;;;;;;5052634;28;20550;-74
2021/07/20 12:38:03;;;;;;;24.57;22.37;;;34.20;65.00;;;;;;5058571;28;20492;-73
2021/07/20 12:40:30;;;;;;;25.43;23.23;;;32.90;64.10;;;;;;5063857;28;20450;-71
2021/07/20 12:43:08;;;;;;;25.43;23.23;;;32.80;65.80;;;;;;5056801;28;20483;-71
2021/07/20 12:45:35;;;;;;;23.80;22.00;;;32.40;64.30;;;;;;5053186;28;20456;-71
2021/07/20 12:48:04;;;;;;;22.80;21.03;;;32.10;64.70;;;;;;5056350;28;20467;-76
2021/07/20 12:50:38;;;;;;;23.73;22.03;;;32.90;63.30;;;;;;5060847;28;20459;-71